Hagarville, Arkansas
Current Conditions -  °F | °C
As of 10:40 AM on Saturday 22 Nov 2014 (Local Time) from KRUE Reporting Station
Heavy Rain Heavy Rain  
Wind Chill: 53°   Ceiling: 3800
Heat Index: 53°   Visibility: 2mi
Dew Point: 51°   Wind: 0mph
Humidity: 93%   Direction: NA
Pressure: 30.15"   Gusts: NA
Location:  35.52°N, 93.33°W
Report Text: KRUE 221640Z AUTO 00000KT 2SM +RA BR BKN038 OVC047 12/11 A3015 RMK AO2 P0007 T01170106
Loading
Personal Weather Stations






























Interactive Weather Map New forecast layout! Learn more

10-Day Weather Forecast

Advertisements
Track Severe Weather on mobile